sensor_id;sensor_type;location;lat;lon;timestamp;temperature;humidity
23385;DHT22;11865;45.394;10.978;2023-07-13T00:02:01;23.80;97.50
23385;DHT22;11865;45.394;10.978;2023-07-13T00:04:29;23.20;98.30
23385;DHT22;11865;45.394;10.978;2023-07-13T00:07:00;22.80;98.10
23385;DHT22;11865;45.394;10.978;2023-07-13T00:09:27;22.60;98.50
23385;DHT22;11865;45.394;10.978;2023-07-13T00:11:57;22.40;98.60
23385;DHT22;11865;45.394;10.978;2023-07-13T00:14:26;22.30;98.80
23385;DHT22;11865;45.394;10.978;2023-07-13T00:16:54;22.40;98.50
23385;DHT22;11865;45.394;10.978;2023-07-13T00:19:22;22.50;98.60
23385;DHT22;11865;45.394;10.978;2023-07-13T00:21:50;22.60;98.10
23385;DHT22;11865;45.394;10.978;2023-07-13T00:24:18;22.70;97.70
23385;DHT22;11865;45.394;10.978;2023-07-13T00:26:51;22.80;97.50
23385;DHT22;11865;45.394;10.978;2023-07-13T00:29:19;22.80;96.70
23385;DHT22;11865;45.394;10.978;2023-07-13T00:31:48;22.80;95.80
23385;DHT22;11865;45.394;10.978;2023-07-13T00:34:16;22.80;95.80
23385;DHT22;11865;45.394;10.978;2023-07-13T00:36:44;22.70;94.80
23385;DHT22;11865;45.394;10.978;2023-07-13T00:39:12;22.70;95.20
23385;DHT22;11865;45.394;10.978;2023-07-13T00:41:39;22.50;94.90
23385;DHT22;11865;45.394;10.978;2023-07-13T00:44:16;22.40;94.40
23385;DHT22;11865;45.394;10.978;2023-07-13T00:46:43;22.20;93.90
23385;DHT22;11865;45.394;10.978;2023-07-13T00:49:15;22.30;93.90
23385;DHT22;11865;45.394;10.978;2023-07-13T00:51:55;22.30;93.70
23385;DHT22;11865;45.394;10.978;2023-07-13T00:54:30;22.30;93.30
23385;DHT22;11865;45.394;10.978;2023-07-13T00:57:02;22.40;93.20
23385;DHT22;11865;45.394;10.978;2023-07-13T00:59:31;22.50;93.10
23385;DHT22;11865;45.394;10.978;2023-07-13T01:01:59;22.50;92.70
23385;DHT22;11865;45.394;10.978;2023-07-13T01:04:28;22.60;92.80
23385;DHT22;11865;45.394;10.978;2023-07-13T01:06:57;22.60;92.60
23385;DHT22;11865;45.394;10.978;2023-07-13T01:09:26;22.70;92.70
23385;DHT22;11865;45.394;10.978;2023-07-13T01:11:54;22.70;93.30
23385;DHT22;11865;45.394;10.978;2023-07-13T01:14:21;22.70;92.70
23385;DHT22;11865;45.394;10.978;2023-07-13T01:16:49;22.70;92.90
23385;DHT22;11865;45.394;10.978;2023-07-13T01:19:36;22.60;93.50
23385;DHT22;11865;45.394;10.978;2023-07-13T01:22:10;22.50;94.10
23385;DHT22;11865;45.394;10.978;2023-07-13T01:24:42;22.30;94.40
23385;DHT22;11865;45.394;10.978;2023-07-13T01:27:14;22.20;94.20
23385;DHT22;11865;45.394;10.978;2023-07-13T01:29:44;22.10;94.70
23385;DHT22;11865;45.394;10.978;2023-07-13T01:32:16;22.20;95.00
23385;DHT22;11865;45.394;10.978;2023-07-13T01:34:44;22.10;94.80
23385;DHT22;11865;45.394;10.978;2023-07-13T01:37:15;22.10;94.70
23385;DHT22;11865;45.394;10.978;2023-07-13T01:39:43;22.20;95.50
23385;DHT22;11865;45.394;10.978;2023-07-13T01:42:10;22.20;95.30
23385;DHT22;11865;45.394;10.978;2023-07-13T01:44:38;22.30;94.70
23385;DHT22;11865;45.394;10.978;2023-07-13T01:47:05;22.30;94.10
23385;DHT22;11865;45.394;10.978;2023-07-13T01:49:33;22.50;93.80
23385;DHT22;11865;45.394;10.978;2023-07-13T01:52:00;22.60;93.80
23385;DHT22;11865;45.394;10.978;2023-07-13T01:54:28;22.70;93.40
23385;DHT22;11865;45.394;10.978;2023-07-13T01:56:55;22.80;93.40
23385;DHT22;11865;45.394;10.978;2023-07-13T01:59:24;22.90;94.30
23385;DHT22;11865;45.394;10.978;2023-07-13T02:01:51;22.90;93.00
23385;DHT22;11865;45.394;10.978;2023-07-13T02:04:20;22.90;93.20
23385;DHT22;11865;45.394;10.978;2023-07-13T02:06:48;23.00;93.20
23385;DHT22;11865;45.394;10.978;2023-07-13T02:09:16;22.90;93.20
23385;DHT22;11865;45.394;10.978;2023-07-13T02:11:44;22.90;93.80
23385;DHT22;11865;45.394;10.978;2023-07-13T02:14:11;22.70;94.10
23385;DHT22;11865;45.394;10.978;2023-07-13T02:16:39;22.60;93.80
23385;DHT22;11865;45.394;10.978;2023-07-13T02:19:07;22.50;94.20
23385;DHT22;11865;45.394;10.978;2023-07-13T02:21:34;22.50;94.10
23385;DHT22;11865;45.394;10.978;2023-07-13T02:24:02;22.50;94.30
23385;DHT22;11865;45.394;10.978;2023-07-13T02:26:30;22.60;94.40
23385;DHT22;11865;45.394;10.978;2023-07-13T02:28:57;22.40;95.10
23385;DHT22;11865;45.394;10.978;2023-07-13T02:31:25;22.20;95.60
23385;DHT22;11865;45.394;10.978;2023-07-13T02:33:54;22.30;95.80
23385;DHT22;11865;45.394;10.978;2023-07-13T02:36:21;22.20;95.90
23385;DHT22;11865;45.394;10.978;2023-07-13T02:38:50;22.20;96.50
23385;DHT22;11865;45.394;10.978;2023-07-13T02:41:17;22.30;96.90
23385;DHT22;11865;45.394;10.978;2023-07-13T02:43:46;22.20;97.10
23385;DHT22;11865;45.394;10.978;2023-07-13T02:46:14;22.00;97.00
23385;DHT22;11865;45.394;10.978;2023-07-13T02:48:42;21.90;97.50
23385;DHT22;11865;45.394;10.978;2023-07-13T02:51:09;21.80;97.90
23385;DHT22;11865;45.394;10.978;2023-07-13T02:53:37;21.80;97.90
23385;DHT22;11865;45.394;10.978;2023-07-13T02:56:05;21.80;98.20
23385;DHT22;11865;45.394;10.978;2023-07-13T02:58:33;21.80;98.40
23385;DHT22;11865;45.394;10.978;2023-07-13T03:01:07;21.90;98.40
23385;DHT22;11865;45.394;10.978;2023-07-13T03:03:35;21.90;98.80
23385;DHT22;11865;45.394;10.978;2023-07-13T03:06:04;21.90;99.10
23385;DHT22;11865;45.394;10.978;2023-07-13T03:08:41;21.90;99.40
23385;DHT22;11865;45.394;10.978;2023-07-13T03:11:19;21.80;99.40
23385;DHT22;11865;45.394;10.978;2023-07-13T03:14:00;21.80;99.00
23385;DHT22;11865;45.394;10.978;2023-07-13T03:16:31;21.80;99.20
23385;DHT22;11865;45.394;10.978;2023-07-13T03:18:59;21.80;99.20
23385;DHT22;11865;45.394;10.978;2023-07-13T03:21:28;21.80;99.60
23385;DHT22;11865;45.394;10.978;2023-07-13T03:23:55;21.70;99.70
23385;DHT22;11865;45.394;10.978;2023-07-13T03:26:23;21.60;99.90
23385;DHT22;11865;45.394;10.978;2023-07-13T03:28:51;21.60;99.90
23385;DHT22;11865;45.394;10.978;2023-07-13T03:31:25;21.60;99.90
23385;DHT22;11865;45.394;10.978;2023-07-13T03:33:53;21.60;99.90
23385;DHT22;11865;45.394;10.978;2023-07-13T03:36:23;21.60;99.90
23385;DHT22;11865;45.394;10.978;2023-07-13T03:38:57;21.50;99.90
23385;DHT22;11865;45.394;10.978;2023-07-13T03:41:30;21.50;99.90
23385;DHT22;11865;45.394;10.978;2023-07-13T03:43:59;21.60;99.90
23385;DHT22;11865;45.394;10.978;2023-07-13T03:46:27;21.60;99.90
23385;DHT22;11865;45.394;10.978;2023-07-13T03:48:57;21.60;99.90
23385;DHT22;11865;45.394;10.978;2023-07-13T03:51:25;21.60;99.90
23385;DHT22;11865;45.394;10.978;2023-07-13T03:53:52;21.60;99.90
23385;DHT22;11865;45.394;10.978;2023-07-13T03:56:20;21.70;99.90
23385;DHT22;11865;45.394;10.978;2023-07-13T03:58:49;21.80;99.90
23385;DHT22;11865;45.394;10.978;2023-07-13T04:01:21;21.80;99.90
23385;DHT22;11865;45.394;10.978;2023-07-13T04:03:49;21.70;99.90
23385;DHT22;11865;45.394;10.978;2023-07-13T04:06:23;21.70;99.90
23385;DHT22;11865;45.394;10.978;2023-07-13T04:08:56;21.90;99.90
23385;DHT22;11865;45.394;10.978;2023-07-13T04:11:27;21.90;99.90
23385;DHT22;11865;45.394;10.978;2023-07-13T04:13:56;22.00;99.90
23385;DHT22;11865;45.394;10.978;2023-07-13T04:16:24;22.00;99.90
23385;DHT22;11865;45.394;10.978;2023-07-13T04:18:52;22.00;99.90
23385;DHT22;11865;45.394;10.978;2023-07-13T04:21:28;22.00;99.90
23385;DHT22;11865;45.394;10.978;2023-07-13T04:23:57;22.20;99.90
23385;DHT22;11865;45.394;10.978;2023-07-13T04:26:25;22.30;99.90
23385;DHT22;11865;45.394;10.978;2023-07-13T04:28:52;22.50;99.50
23385;DHT22;11865;45.394;10.978;2023-07-13T04:31:20;22.80;98.00
23385;DHT22;11865;45.394;10.978;2023-07-13T04:33:49;23.00;97.30
23385;DHT22;11865;45.394;10.978;2023-07-13T04:36:18;23.30;97.10
23385;DHT22;11865;45.394;10.978;2023-07-13T04:38:45;23.30;96.50
23385;DHT22;11865;45.394;10.978;2023-07-13T04:41:13;23.50;96.80
23385;DHT22;11865;45.394;10.978;2023-07-13T04:43:42;23.70;96.30
23385;DHT22;11865;45.394;10.978;2023-07-13T04:46:12;23.80;96.00
23385;DHT22;11865;45.394;10.978;2023-07-13T04:48:41;24.00;95.10
23385;DHT22;11865;45.394;10.978;2023-07-13T04:51:08;24.00;96.00
23385;DHT22;11865;45.394;10.978;2023-07-13T04:53:36;24.00;95.70
23385;DHT22;11865;45.394;10.978;2023-07-13T04:56:04;23.90;96.10
23385;DHT22;11865;45.394;10.978;2023-07-13T04:58:31;24.00;95.90
23385;DHT22;11865;45.394;10.978;2023-07-13T05:01:04;24.00;95.90
23385;DHT22;11865;45.394;10.978;2023-07-13T05:03:32;24.10;95.40
23385;DHT22;11865;45.394;10.978;2023-07-13T05:06:03;24.30;95.00
23385;DHT22;11865;45.394;10.978;2023-07-13T05:08:31;24.50;95.00
23385;DHT22;11865;45.394;10.978;2023-07-13T05:11:02;24.40;94.10
23385;DHT22;11865;45.394;10.978;2023-07-13T05:13:30;24.20;94.20
23385;DHT22;11865;45.394;10.978;2023-07-13T05:16:00;24.10;94.50
23385;DHT22;11865;45.394;10.978;2023-07-13T05:18:28;23.90;94.60
23385;DHT22;11865;45.394;10.978;2023-07-13T05:21:08;23.80;94.90
23385;DHT22;11865;45.394;10.978;2023-07-13T05:23:36;23.90;95.20
23385;DHT22;11865;45.394;10.978;2023-07-13T05:26:04;24.00;95.20
23385;DHT22;11865;45.394;10.978;2023-07-13T05:28:36;24.10;95.50
23385;DHT22;11865;45.394;10.978;2023-07-13T05:31:06;24.10;95.60
23385;DHT22;11865;45.394;10.978;2023-07-13T05:33:34;24.00;94.70
23385;DHT22;11865;45.394;10.978;2023-07-13T05:36:02;24.00;94.80
23385;DHT22;11865;45.394;10.978;2023-07-13T05:38:30;23.90;95.00
23385;DHT22;11865;45.394;10.978;2023-07-13T05:40:57;24.00;94.70
23385;DHT22;11865;45.394;10.978;2023-07-13T05:43:25;23.90;95.00
23385;DHT22;11865;45.394;10.978;2023-07-13T05:45:54;23.90;95.30
23385;DHT22;11865;45.394;10.978;2023-07-13T05:48:22;23.80;95.60
23385;DHT22;11865;45.394;10.978;2023-07-13T05:50:50;23.50;95.60
23385;DHT22;11865;45.394;10.978;2023-07-13T05:53:17;23.70;95.50
23385;DHT22;11865;45.394;10.978;2023-07-13T05:55:46;23.90;94.90
23385;DHT22;11865;45.394;10.978;2023-07-13T05:58:18;23.90;95.00
23385;DHT22;11865;45.394;10.978;2023-07-13T06:00:46;24.00;95.20
23385;DHT22;11865;45.394;10.978;2023-07-13T06:03:15;24.10;95.30
23385;DHT22;11865;45.394;10.978;2023-07-13T06:05:42;24.00;95.00
23385;DHT22;11865;45.394;10.978;2023-07-13T06:08:10;23.90;95.20
23385;DHT22;11865;45.394;10.978;2023-07-13T06:10:37;24.00;95.30
23385;DHT22;11865;45.394;10.978;2023-07-13T06:13:05;24.10;95.00
23385;DHT22;11865;45.394;10.978;2023-07-13T06:15:33;24.30;94.70
23385;DHT22;11865;45.394;10.978;2023-07-13T06:18:00;24.20;94.60
23385;DHT22;11865;45.394;10.978;2023-07-13T06:20:28;24.10;94.30
23385;DHT22;11865;45.394;10.978;2023-07-13T06:22:56;23.90;94.80
23385;DHT22;11865;45.394;10.978;2023-07-13T06:25:26;23.90;94.80
23385;DHT22;11865;45.394;10.978;2023-07-13T06:27:54;24.00;94.70
23385;DHT22;11865;45.394;10.978;2023-07-13T06:30:21;23.90;94.60
23385;DHT22;11865;45.394;10.978;2023-07-13T06:32:49;24.00;94.50
23385;DHT22;11865;45.394;10.978;2023-07-13T06:35:16;24.00;94.20
23385;DHT22;11865;45.394;10.978;2023-07-13T06:37:44;24.00;94.20
23385;DHT22;11865;45.394;10.978;2023-07-13T06:40:12;23.90;94.30
23385;DHT22;11865;45.394;10.978;2023-07-13T06:42:39;23.80;94.40
23385;DHT22;11865;45.394;10.978;2023-07-13T06:45:07;23.90;94.30
23385;DHT22;11865;45.394;10.978;2023-07-13T06:47:35;24.00;94.30
23385;DHT22;11865;45.394;10.978;2023-07-13T06:50:02;24.00;94.10
23385;DHT22;11865;45.394;10.978;2023-07-13T06:52:30;24.00;93.90
23385;DHT22;11865;45.394;10.978;2023-07-13T06:54:58;24.10;94.10
23385;DHT22;11865;45.394;10.978;2023-07-13T06:57:25;24.10;94.40
23385;DHT22;11865;45.394;10.978;2023-07-13T06:59:53;24.10;94.60
23385;DHT22;11865;45.394;10.978;2023-07-13T07:02:21;24.20;94.60
23385;DHT22;11865;45.394;10.978;2023-07-13T07:04:48;24.20;94.10
23385;DHT22;11865;45.394;10.978;2023-07-13T07:12:51;24.30;93.40
23385;DHT22;11865;45.394;10.978;2023-07-13T07:15:18;24.40;93.30
23385;DHT22;11865;45.394;10.978;2023-07-13T07:17:46;24.60;93.80
23385;DHT22;11865;45.394;10.978;2023-07-13T07:20:13;24.80;92.70
23385;DHT22;11865;45.394;10.978;2023-07-13T07:22:41;24.90;92.20
23385;DHT22;11865;45.394;10.978;2023-07-13T07:25:09;24.90;92.00
23385;DHT22;11865;45.394;10.978;2023-07-13T07:27:36;25.00;92.20
23385;DHT22;11865;45.394;10.978;2023-07-13T07:30:07;25.20;92.20
23385;DHT22;11865;45.394;10.978;2023-07-13T07:32:38;25.20;91.70
23385;DHT22;11865;45.394;10.978;2023-07-13T07:35:08;25.20;91.60
23385;DHT22;11865;45.394;10.978;2023-07-13T07:37:36;25.30;91.50
23385;DHT22;11865;45.394;10.978;2023-07-13T07:40:07;25.50;91.30
23385;DHT22;11865;45.394;10.978;2023-07-13T07:42:38;25.40;91.30
23385;DHT22;11865;45.394;10.978;2023-07-13T07:45:06;25.90;90.90
23385;DHT22;11865;45.394;10.978;2023-07-13T07:47:33;26.10;90.10
23385;DHT22;11865;45.394;10.978;2023-07-13T07:50:01;26.00;90.60
23385;DHT22;11865;45.394;10.978;2023-07-13T07:52:28;26.00;90.10
23385;DHT22;11865;45.394;10.978;2023-07-13T07:54:56;25.60;90.40
23385;DHT22;11865;45.394;10.978;2023-07-13T07:57:43;25.70;90.80
23385;DHT22;11865;45.394;10.978;2023-07-13T08:00:15;25.60;90.60
23385;DHT22;11865;45.394;10.978;2023-07-13T08:02:47;25.50;91.00
23385;DHT22;11865;45.394;10.978;2023-07-13T08:05:18;25.50;91.30
23385;DHT22;11865;45.394;10.978;2023-07-13T08:07:48;25.50;91.50
23385;DHT22;11865;45.394;10.978;2023-07-13T08:10:16;25.50;91.40
23385;DHT22;11865;45.394;10.978;2023-07-13T08:12:44;25.30;91.40
23385;DHT22;11865;45.394;10.978;2023-07-13T08:15:31;25.30;91.90
23385;DHT22;11865;45.394;10.978;2023-07-13T08:17:59;25.40;91.50
23385;DHT22;11865;45.394;10.978;2023-07-13T08:20:27;25.40;91.60
23385;DHT22;11865;45.394;10.978;2023-07-13T08:22:54;25.30;91.80
23385;DHT22;11865;45.394;10.978;2023-07-13T08:25:22;25.30;91.80
23385;DHT22;11865;45.394;10.978;2023-07-13T08:27:50;25.10;92.00
23385;DHT22;11865;45.394;10.978;2023-07-13T08:30:17;25.30;92.10
23385;DHT22;11865;45.394;10.978;2023-07-13T08:32:45;25.30;92.00
23385;DHT22;11865;45.394;10.978;2023-07-13T08:35:12;25.30;92.00
23385;DHT22;11865;45.394;10.978;2023-07-13T08:37:41;25.30;91.80
23385;DHT22;11865;45.394;10.978;2023-07-13T08:40:10;25.20;91.80
23385;DHT22;11865;45.394;10.978;2023-07-13T08:42:58;25.20;92.10
23385;DHT22;11865;45.394;10.978;2023-07-13T08:45:44;25.10;91.60
23385;DHT22;11865;45.394;10.978;2023-07-13T08:48:14;25.20;91.80
23385;DHT22;11865;45.394;10.978;2023-07-13T08:53:38;25.20;91.90
23385;DHT22;11865;45.394;10.978;2023-07-13T08:56:12;25.10;92.30
23385;DHT22;11865;45.394;10.978;2023-07-13T08:58:44;25.00;92.80
23385;DHT22;11865;45.394;10.978;2023-07-13T09:03:46;25.20;92.80
23385;DHT22;11865;45.394;10.978;2023-07-13T09:06:16;25.20;92.80
23385;DHT22;11865;45.394;10.978;2023-07-13T09:09:08;25.20;92.60
23385;DHT22;11865;45.394;10.978;2023-07-13T09:11:50;25.20;92.70
23385;DHT22;11865;45.394;10.978;2023-07-13T09:17:04;25.20;92.70
23385;DHT22;11865;45.394;10.978;2023-07-13T09:19:36;25.20;92.80
23385;DHT22;11865;45.394;10.978;2023-07-13T09:22:08;25.20;92.80
23385;DHT22;11865;45.394;10.978;2023-07-13T09:24:47;25.20;93.00
23385;DHT22;11865;45.394;10.978;2023-07-13T09:27:22;25.40;92.90
23385;DHT22;11865;45.394;10.978;2023-07-13T09:30:00;25.40;92.80
23385;DHT22;11865;45.394;10.978;2023-07-13T09:32:29;25.60;92.40
23385;DHT22;11865;45.394;10.978;2023-07-13T09:34:57;25.60;92.10
23385;DHT22;11865;45.394;10.978;2023-07-13T09:37:30;25.50;92.80
23385;DHT22;11865;45.394;10.978;2023-07-13T09:39:59;25.60;92.10
23385;DHT22;11865;45.394;10.978;2023-07-13T09:42:32;25.60;92.40
23385;DHT22;11865;45.394;10.978;2023-07-13T09:45:01;25.80;92.40
23385;DHT22;11865;45.394;10.978;2023-07-13T09:47:32;26.00;92.20
23385;DHT22;11865;45.394;10.978;2023-07-13T09:50:04;26.10;92.40
23385;DHT22;11865;45.394;10.978;2023-07-13T09:52:46;26.50;91.00
23385;DHT22;11865;45.394;10.978;2023-07-13T09:55:25;26.90;92.80
23385;DHT22;11865;45.394;10.978;2023-07-13T09:57:53;27.20;92.00
23385;DHT22;11865;45.394;10.978;2023-07-13T10:00:26;27.40;91.40
23385;DHT22;11865;45.394;10.978;2023-07-13T10:03:04;27.70;91.50
23385;DHT22;11865;45.394;10.978;2023-07-13T10:05:41;28.00;90.40
23385;DHT22;11865;45.394;10.978;2023-07-13T10:10:46;28.70;87.70
23385;DHT22;11865;45.394;10.978;2023-07-13T10:15:55;28.80;89.80
23385;DHT22;11865;45.394;10.978;2023-07-13T10:18:25;29.20;88.00
23385;DHT22;11865;45.394;10.978;2023-07-13T10:21:10;29.10;86.10
23385;DHT22;11865;45.394;10.978;2023-07-13T10:26:45;29.60;86.50
23385;DHT22;11865;45.394;10.978;2023-07-13T10:29:14;29.50;86.60
23385;DHT22;11865;45.394;10.978;2023-07-13T10:31:44;29.70;83.40
23385;DHT22;11865;45.394;10.978;2023-07-13T10:34:13;29.80;81.10
23385;DHT22;11865;45.394;10.978;2023-07-13T10:36:46;29.80;85.80
23385;DHT22;11865;45.394;10.978;2023-07-13T10:39:27;29.70;83.00
23385;DHT22;11865;45.394;10.978;2023-07-13T10:42:05;29.90;82.80
23385;DHT22;11865;45.394;10.978;2023-07-13T10:44:33;29.80;84.10
23385;DHT22;11865;45.394;10.978;2023-07-13T10:47:06;30.20;84.50
23385;DHT22;11865;45.394;10.978;2023-07-13T10:49:35;30.30;85.20
23385;DHT22;11865;45.394;10.978;2023-07-13T10:52:04;30.30;83.30
23385;DHT22;11865;45.394;10.978;2023-07-13T10:54:32;30.10;82.50
23385;DHT22;11865;45.394;10.978;2023-07-13T10:57:20;30.80;84.20
23385;DHT22;11865;45.394;10.978;2023-07-13T11:02:29;31.30;79.30
23385;DHT22;11865;45.394;10.978;2023-07-13T11:04:57;31.20;79.40
23385;DHT22;11865;45.394;10.978;2023-07-13T11:07:28;31.30;79.30
23385;DHT22;11865;45.394;10.978;2023-07-13T11:09:59;31.40;78.40
23385;DHT22;11865;45.394;10.978;2023-07-13T11:12:48;31.30;79.60
23385;DHT22;11865;45.394;10.978;2023-07-13T11:15:31;30.90;82.60
23385;DHT22;11865;45.394;10.978;2023-07-13T11:18:04;30.90;83.70
23385;DHT22;11865;45.394;10.978;2023-07-13T11:20:35;30.80;83.40
23385;DHT22;11865;45.394;10.978;2023-07-13T11:25:40;30.80;81.10
23385;DHT22;11865;45.394;10.978;2023-07-13T11:33:11;30.30;78.50
23385;DHT22;11865;45.394;10.978;2023-07-13T11:38:28;30.60;79.70
23385;DHT22;11865;45.394;10.978;2023-07-13T11:41:02;30.80;77.10
23385;DHT22;11865;45.394;10.978;2023-07-13T11:43:31;30.80;81.60
23385;DHT22;11865;45.394;10.978;2023-07-13T11:46:33;30.60;80.60
23385;DHT22;11865;45.394;10.978;2023-07-13T11:49:01;30.40;79.00
23385;DHT22;11865;45.394;10.978;2023-07-13T11:51:36;30.20;81.00
23385;DHT22;11865;45.394;10.978;2023-07-13T11:54:30;30.20;80.20
23385;DHT22;11865;45.394;10.978;2023-07-13T11:59:30;30.10;79.60
23385;DHT22;11865;45.394;10.978;2023-07-13T12:01:58;30.40;83.30
23385;DHT22;11865;45.394;10.978;2023-07-13T12:04:32;30.40;83.10
23385;DHT22;11865;45.394;10.978;2023-07-13T12:07:14;30.50;82.00
23385;DHT22;11865;45.394;10.978;2023-07-13T12:09:42;30.40;79.40
23385;DHT22;11865;45.394;10.978;2023-07-13T12:12:14;30.40;81.20
23385;DHT22;11865;45.394;10.978;2023-07-13T12:14:44;30.30;81.20
23385;DHT22;11865;45.394;10.978;2023-07-13T12:17:19;30.60;78.60
23385;DHT22;11865;45.394;10.978;2023-07-13T12:19:48;30.80;80.10
23385;DHT22;11865;45.394;10.978;2023-07-13T12:22:17;30.80;79.70
23385;DHT22;11865;45.394;10.978;2023-07-13T12:24:47;30.90;78.90
23385;DHT22;11865;45.394;10.978;2023-07-13T12:27:24;30.90;79.30
23385;DHT22;11865;45.394;10.978;2023-07-13T12:30:00;31.00;77.30
23385;DHT22;11865;45.394;10.978;2023-07-13T12:32:28;30.90;76.00
23385;DHT22;11865;45.394;10.978;2023-07-13T12:35:16;30.90;78.80
23385;DHT22;11865;45.394;10.978;2023-07-13T12:37:47;30.90;77.90
23385;DHT22;11865;45.394;10.978;2023-07-13T12:40:20;30.80;78.70
23385;DHT22;11865;45.394;10.978;2023-07-13T12:42:50;30.50;78.00
23385;DHT22;11865;45.394;10.978;2023-07-13T12:45:25;30.60;80.80
23385;DHT22;11865;45.394;10.978;2023-07-13T12:47:55;31.00;79.60
23385;DHT22;11865;45.394;10.978;2023-07-13T12:50:34;30.90;79.20
23385;DHT22;11865;45.394;10.978;2023-07-13T12:53:05;30.90;81.10
23385;DHT22;11865;45.394;10.978;2023-07-13T12:55:57;30.80;82.00
23385;DHT22;11865;45.394;10.978;2023-07-13T12:58:40;30.80;82.20
23385;DHT22;11865;45.394;10.978;2023-07-13T13:01:12;31.00;83.00
23385;DHT22;11865;45.394;10.978;2023-07-13T13:03:45;31.10;79.60
23385;DHT22;11865;45.394;10.978;2023-07-13T13:08:47;31.10;79.00
23385;DHT22;11865;45.394;10.978;2023-07-13T13:11:16;31.30;76.80
23385;DHT22;11865;45.394;10.978;2023-07-13T13:13:44;31.00;80.00
23385;DHT22;11865;45.394;10.978;2023-07-13T13:16:23;31.20;81.80
23385;DHT22;11865;45.394;10.978;2023-07-13T13:18:53;31.00;80.30
23385;DHT22;11865;45.394;10.978;2023-07-13T13:21:23;30.90;79.20
23385;DHT22;11865;45.394;10.978;2023-07-13T13:23:51;30.80;80.00
23385;DHT22;11865;45.394;10.978;2023-07-13T13:26:21;30.60;77.70
23385;DHT22;11865;45.394;10.978;2023-07-13T13:28:48;30.70;80.80
23385;DHT22;11865;45.394;10.978;2023-07-13T13:31:16;31.00;80.80
23385;DHT22;11865;45.394;10.978;2023-07-13T13:33:45;31.20;78.70
23385;DHT22;11865;45.394;10.978;2023-07-13T13:36:18;31.20;80.40
23385;DHT22;11865;45.394;10.978;2023-07-13T13:38:47;31.20;78.80
23385;DHT22;11865;45.394;10.978;2023-07-13T13:41:16;31.00;79.90
23385;DHT22;11865;45.394;10.978;2023-07-13T13:43:43;30.80;78.80
23385;DHT22;11865;45.394;10.978;2023-07-13T13:46:20;30.70;80.50
23385;DHT22;11865;45.394;10.978;2023-07-13T13:48:49;31.00;80.00
23385;DHT22;11865;45.394;10.978;2023-07-13T13:51:20;31.20;79.30
23385;DHT22;11865;45.394;10.978;2023-07-13T13:53:48;30.60;80.90
23385;DHT22;11865;45.394;10.978;2023-07-13T13:56:18;30.80;81.10
23385;DHT22;11865;45.394;10.978;2023-07-13T13:58:46;30.90;79.30
23385;DHT22;11865;45.394;10.978;2023-07-13T14:01:18;30.60;80.50
23385;DHT22;11865;45.394;10.978;2023-07-13T14:03:46;30.70;79.60
23385;DHT22;11865;45.394;10.978;2023-07-13T14:06:16;30.50;80.30
23385;DHT22;11865;45.394;10.978;2023-07-13T14:08:43;30.60;80.50
23385;DHT22;11865;45.394;10.978;2023-07-13T14:11:14;30.70;80.60
23385;DHT22;11865;45.394;10.978;2023-07-13T14:13:48;30.60;80.00
23385;DHT22;11865;45.394;10.978;2023-07-13T14:16:21;30.60;80.60
23385;DHT22;11865;45.394;10.978;2023-07-13T14:18:50;30.90;80.20
23385;DHT22;11865;45.394;10.978;2023-07-13T14:21:20;31.00;78.60
23385;DHT22;11865;45.394;10.978;2023-07-13T14:23:49;30.80;81.00
23385;DHT22;11865;45.394;10.978;2023-07-13T14:26:23;31.00;79.60
23385;DHT22;11865;45.394;10.978;2023-07-13T14:28:55;30.90;79.40
23385;DHT22;11865;45.394;10.978;2023-07-13T14:31:26;30.80;80.00
23385;DHT22;11865;45.394;10.978;2023-07-13T14:33:57;30.10;81.20
23385;DHT22;11865;45.394;10.978;2023-07-13T14:36:32;30.50;82.70
23385;DHT22;11865;45.394;10.978;2023-07-13T14:39:05;30.80;81.00
23385;DHT22;11865;45.394;10.978;2023-07-13T14:41:36;30.60;81.00
23385;DHT22;11865;45.394;10.978;2023-07-13T14:44:13;30.90;81.20
23385;DHT22;11865;45.394;10.978;2023-07-13T14:46:42;31.20;80.00
23385;DHT22;11865;45.394;10.978;2023-07-13T14:51:58;31.80;78.00
23385;DHT22;11865;45.394;10.978;2023-07-13T14:54:26;31.10;77.70
23385;DHT22;11865;45.394;10.978;2023-07-13T14:56:54;31.40;80.00
23385;DHT22;11865;45.394;10.978;2023-07-13T14:59:21;31.50;79.20
23385;DHT22;11865;45.394;10.978;2023-07-13T15:01:50;31.70;79.70
23385;DHT22;11865;45.394;10.978;2023-07-13T15:04:18;31.30;81.00
23385;DHT22;11865;45.394;10.978;2023-07-13T15:06:57;31.20;81.70
23385;DHT22;11865;45.394;10.978;2023-07-13T15:09:26;30.90;81.40
23385;DHT22;11865;45.394;10.978;2023-07-13T15:11:57;30.90;83.10
23385;DHT22;11865;45.394;10.978;2023-07-13T15:14:25;31.20;81.40
23385;DHT22;11865;45.394;10.978;2023-07-13T15:16:55;31.50;77.70
23385;DHT22;11865;45.394;10.978;2023-07-13T15:19:23;31.10;79.10
23385;DHT22;11865;45.394;10.978;2023-07-13T15:21:54;30.90;79.10
23385;DHT22;11865;45.394;10.978;2023-07-13T15:24:22;31.00;80.20
23385;DHT22;11865;45.394;10.978;2023-07-13T15:26:49;31.00;80.50
23385;DHT22;11865;45.394;10.978;2023-07-13T15:29:17;31.00;81.70
23385;DHT22;11865;45.394;10.978;2023-07-13T15:31:45;30.60;81.60
23385;DHT22;11865;45.394;10.978;2023-07-13T15:34:20;30.60;82.20
23385;DHT22;11865;45.394;10.978;2023-07-13T15:36:52;30.60;82.90
23385;DHT22;11865;45.394;10.978;2023-07-13T15:39:19;31.00;80.10
23385;DHT22;11865;45.394;10.978;2023-07-13T15:41:47;30.80;80.70
23385;DHT22;11865;45.394;10.978;2023-07-13T15:44:28;30.50;80.80
23385;DHT22;11865;45.394;10.978;2023-07-13T15:46:56;30.40;79.00
23385;DHT22;11865;45.394;10.978;2023-07-13T15:49:24;30.50;81.20
23385;DHT22;11865;45.394;10.978;2023-07-13T15:51:52;30.50;78.90
23385;DHT22;11865;45.394;10.978;2023-07-13T15:54:19;30.60;78.30
23385;DHT22;11865;45.394;10.978;2023-07-13T15:56:53;30.80;78.50
23385;DHT22;11865;45.394;10.978;2023-07-13T15:59:21;31.00;78.10
23385;DHT22;11865;45.394;10.978;2023-07-13T16:01:49;31.00;78.30
23385;DHT22;11865;45.394;10.978;2023-07-13T16:04:18;31.10;77.50
23385;DHT22;11865;45.394;10.978;2023-07-13T16:06:47;31.20;77.20
23385;DHT22;11865;45.394;10.978;2023-07-13T16:09:23;31.00;77.60
23385;DHT22;11865;45.394;10.978;2023-07-13T16:11:51;31.10;75.00
23385;DHT22;11865;45.394;10.978;2023-07-13T16:14:19;31.00;74.80
23385;DHT22;11865;45.394;10.978;2023-07-13T16:16:48;30.90;75.30
23385;DHT22;11865;45.394;10.978;2023-07-13T16:19:18;30.80;75.20